Mabie, West Virginia
Current Conditions -  °F | °C
As of 5:51 PM on Thursday 23 Oct 2014 (Local Time) from KEKN Reporting Station
Overcast Overcast  
Wind Chill: 46°   Ceiling: 1800
Heat Index: 48°   Visibility: 10mi
Dew Point: 44°   Wind: 5mph
Humidity: 86%   Direction: 290°WNW
Pressure: 30.09"   Gusts: NA
Location:  38.88°N, 79.98°W
Report Text: KEKN 232151Z AUTO 29004KT 10SM BKN018 OVC025 09/07 A3009 RMK AO2 SLP200 T00890067 TSNO
Loading
Personal Weather Stations






























Interactive Weather Map
Tropical Storm Tracking
New forecast layout! Learn more

10-Day Weather Forecast

Advertisements
Track Severe Weather on mobile